createdAt,value
2018-04-20T13:21:57.927Z,37.90
2018-04-20T13:24:30.569Z,37.80
2018-04-20T13:27:02.466Z,37.70
2018-04-20T13:29:35.102Z,36.80
2018-04-20T13:32:07.011Z,36.80
2018-04-20T13:34:39.666Z,38.50
2018-04-20T13:37:11.873Z,38.50
2018-04-20T13:39:43.785Z,36.40
2018-04-20T13:42:15.670Z,36.60
2018-04-20T13:44:48.578Z,37.30
2018-04-20T13:47:20.458Z,37.30
2018-04-20T13:49:52.354Z,38.30
2018-04-20T13:52:24.563Z,38.10
2018-04-20T13:54:56.460Z,38.00
2018-04-20T13:57:28.346Z,38.40
2018-04-20T14:00:00.241Z,38.80
2018-04-20T14:02:32.901Z,38.90
2018-04-20T14:05:05.555Z,38.60
2018-04-20T14:07:37.446Z,38.60
2018-04-20T14:10:10.102Z,38.90
2018-04-20T14:12:42.311Z,38.90
2018-04-20T14:15:14.218Z,38.80
2018-04-20T14:17:46.087Z,39.00
2018-04-20T14:20:17.979Z,39.50
2018-04-20T14:22:50.626Z,40.10
2018-04-20T14:25:22.560Z,40.10
2018-04-20T14:27:54.446Z,40.00
2018-04-20T14:30:26.339Z,40.00
2018-04-20T14:32:59.015Z,39.60
2018-04-20T14:35:31.666Z,39.80
2018-04-20T14:38:03.555Z,39.80
2018-04-20T14:40:36.446Z,40.40
2018-04-20T14:43:08.614Z,40.40
2018-04-20T14:45:40.509Z,41.60
2018-04-20T14:48:12.383Z,41.00
2018-04-20T14:50:44.270Z,41.60
2018-04-20T14:53:16.923Z,40.80
2018-04-20T14:55:48.823Z,40.80
2018-04-20T14:58:21.458Z,40.70
2018-04-20T15:00:53.351Z,40.70
2018-04-20T15:03:25.243Z,40.70
2018-04-20T15:05:57.134Z,40.40
2018-04-20T15:08:29.006Z,40.40
2018-04-20T15:11:00.898Z,41.00
2018-04-20T15:13:33.546Z,41.00
2018-04-20T15:16:05.437Z,41.00
2018-04-20T15:18:38.090Z,41.40
2018-04-20T15:21:10.298Z,41.30
2018-04-20T15:23:42.178Z,41.50
2018-04-20T15:26:14.090Z,41.00
2018-04-20T15:28:45.968Z,40.80
2018-04-20T16:01:08.275Z,43.30
2018-04-20T16:03:40.151Z,43.30
2018-04-20T16:06:12.802Z,43.30
2018-04-20T16:08:44.697Z,43.30
2018-04-20T16:11:17.345Z,43.40
2018-04-20T16:13:49.233Z,43.30
2018-04-20T16:16:21.885Z,43.70
2018-04-20T16:18:53.759Z,43.70
2018-04-20T16:21:26.412Z,44.40
2018-04-20T16:23:58.286Z,43.90
2018-04-20T16:26:30.187Z,44.00
2018-04-20T16:29:02.054Z,43.90
2018-04-20T16:31:33.947Z,43.60
2018-04-20T16:34:05.823Z,44.00
2018-04-20T16:36:37.718Z,43.90
2018-04-20T16:39:09.719Z,44.00
2018-04-20T16:41:41.483Z,43.00
2018-04-20T16:44:13.354Z,43.20
2018-04-20T16:46:46.754Z,43.80
2018-04-20T16:49:18.642Z,43.50
2018-04-20T16:51:51.298Z,42.70
2018-04-20T16:54:23.170Z,42.70
2018-04-20T16:56:55.053Z,42.70
2018-04-20T16:59:27.946Z,42.60
2018-04-20T17:01:59.830Z,42.60
2018-04-20T17:04:31.974Z,43.30
2018-04-20T17:07:03.862Z,43.20
2018-04-20T17:09:35.744Z,43.40
2018-04-20T17:12:07.684Z,43.30
2018-04-20T17:14:39.623Z,43.40
2018-04-20T17:17:12.494Z,44.60
2018-04-20T17:19:44.658Z,43.90
2018-04-20T17:22:16.547Z,44.50
2018-04-20T17:24:48.440Z,44.00
2018-04-20T17:27:20.322Z,44.70
2018-04-20T17:29:53.786Z,45.30
2018-04-20T17:32:25.676Z,45.30
2018-04-20T17:34:58.314Z,46.30
2018-04-20T17:37:30.223Z,46.30
2018-04-20T17:40:02.941Z,46.30
2018-04-20T17:42:34.841Z,46.30
2018-04-20T17:45:06.762Z,46.40
2018-04-20T17:47:38.651Z,47.20
2018-04-20T17:50:10.537Z,47.10
2018-04-20T17:52:43.185Z,47.30
2018-04-20T17:55:15.076Z,47.30
2018-04-20T17:57:47.726Z,48.30
2018-04-20T18:00:19.606Z,47.60
2018-04-20T18:02:51.512Z,47.60
2018-04-20T18:05:23.414Z,48.00
2018-04-20T18:07:55.305Z,48.00
2018-04-20T18:10:27.946Z,48.70
2018-04-20T18:12:59.842Z,48.70
2018-04-20T18:15:32.482Z,49.90
2018-04-20T18:18:04.610Z,49.90
2018-04-20T18:20:36.481Z,50.70
2018-04-20T18:23:08.382Z,51.40
2018-04-20T18:25:40.267Z,51.90
2018-04-20T18:28:12.915Z,52.50
2018-04-20T18:30:44.794Z,52.40
2018-04-20T18:33:16.679Z,52.70
2018-04-20T18:35:48.569Z,52.30
2018-04-20T18:38:20.806Z,52.20
2018-04-20T18:40:52.722Z,52.30
2018-04-20T18:43:24.619Z,52.40
2018-04-20T18:45:57.512Z,52.90
2018-04-20T18:48:29.681Z,52.90
2018-04-20T18:51:01.563Z,53.10
2018-04-20T18:53:33.447Z,53.40
2018-04-20T18:56:05.323Z,53.80
2018-04-20T18:58:37.215Z,54.00
2018-04-20T19:01:09.102Z,54.20
2018-04-20T19:03:40.998Z,54.60
2018-04-20T19:06:13.219Z,54.60
2018-04-20T19:08:45.099Z,54.70
2018-04-20T19:11:16.970Z,55.10
2018-04-20T19:13:48.866Z,55.40
2018-04-20T19:16:21.733Z,56.40
2018-04-20T19:18:53.622Z,56.30
2018-04-20T19:21:26.301Z,58.40
2018-04-20T19:23:58.971Z,59.70
2018-04-20T19:26:31.615Z,60.10
2018-04-20T19:29:03.757Z,60.00
2018-04-20T19:31:35.655Z,60.10
2018-04-20T19:34:07.546Z,60.90
2018-04-20T19:36:40.184Z,62.00
2018-04-20T19:39:12.079Z,62.00
2018-04-20T19:41:44.717Z,63.40
2018-04-20T19:44:16.658Z,63.40
2018-04-20T19:46:48.794Z,63.80
2018-04-20T19:49:20.686Z,64.20
2018-04-20T19:51:52.562Z,64.40
2018-04-20T19:54:24.455Z,64.80
2018-04-20T19:56:57.094Z,65.10
2018-04-20T19:59:28.990Z,65.60
2018-04-20T20:02:00.858Z,66.10
2018-04-20T20:04:33.762Z,67.00
2018-04-20T20:07:05.638Z,66.80
2018-04-20T20:09:37.525Z,66.80
2018-04-20T20:12:09.402Z,67.60
2018-04-20T20:14:41.306Z,67.80
2018-04-20T20:17:13.186Z,68.00
2018-04-20T20:19:45.127Z,68.10
2018-04-20T20:22:17.746Z,68.80
2018-04-20T20:24:49.659Z,68.80
2018-04-20T20:27:21.542Z,69.20
2018-04-20T20:29:53.430Z,69.10
2018-04-20T20:32:25.316Z,69.70
2018-04-20T20:34:57.210Z,69.90
2018-04-20T20:37:29.090Z,70.10
2018-04-20T20:40:00.983Z,70.40
2018-04-20T20:42:32.862Z,70.70
2018-04-20T20:45:05.523Z,71.00
2018-04-20T20:47:37.397Z,71.00
2018-04-20T20:50:10.306Z,71.80
2018-04-20T20:52:42.199Z,71.80
2018-04-20T20:55:14.091Z,71.90
2018-04-20T20:57:45.965Z,72.00
2018-04-20T21:00:18.618Z,72.30
2018-04-20T21:02:50.511Z,72.30
2018-04-20T21:05:23.162Z,72.90
2018-04-20T21:07:55.060Z,72.90
2018-04-20T21:10:26.954Z,73.30
2018-04-20T21:12:58.835Z,73.50
2018-04-20T21:15:30.722Z,73.80
2018-04-20T21:18:03.630Z,74.10
2018-04-20T21:20:35.516Z,74.10
2018-04-20T21:23:07.657Z,74.60
2018-04-20T21:25:39.555Z,74.40
2018-04-20T21:28:11.441Z,74.70
2018-04-20T21:30:43.325Z,75.00
2018-04-20T21:33:15.973Z,75.20
2018-04-20T21:35:47.868Z,75.10
2018-04-20T21:38:19.778Z,75.60
2018-04-20T21:40:51.697Z,75.90
2018-04-20T21:43:23.607Z,76.10
2018-04-20T21:45:55.494Z,76.20
2018-04-20T21:48:28.142Z,76.80
2018-04-20T21:51:00.035Z,76.70
2018-04-20T21:53:32.675Z,77.00
2018-04-20T21:56:04.571Z,77.00
2018-04-20T21:58:37.218Z,77.10
2018-04-20T22:01:09.109Z,77.10
2018-04-20T22:03:41.758Z,77.40
2018-04-20T22:06:13.663Z,77.40
2018-04-20T22:08:46.555Z,78.00
2018-04-20T22:11:18.722Z,78.00
2018-04-20T22:13:50.594Z,78.00
2018-04-20T22:16:22.486Z,78.10
2018-04-20T22:18:54.358Z,78.00
2018-04-20T22:21:26.566Z,78.10
2018-04-20T22:23:58.441Z,78.40
2018-04-20T22:26:30.339Z,78.90
2018-04-20T22:29:02.215Z,79.20
2018-04-20T22:31:34.173Z,79.50
2018-04-20T22:34:06.058Z,79.40
2018-04-20T22:36:38.718Z,80.00
2018-04-20T22:39:10.597Z,79.90
2018-04-20T22:41:43.258Z,80.40
2018-04-20T22:44:15.136Z,80.40
2018-04-20T22:46:47.794Z,80.20
2018-04-20T22:49:19.677Z,80.10
2018-04-20T22:51:52.329Z,80.70
2018-04-20T22:54:24.206Z,80.60
2018-04-20T22:56:56.858Z,80.30
2018-04-20T22:59:28.787Z,80.30
2018-04-20T23:02:01.402Z,80.80
2018-04-20T23:04:33.273Z,80.70
2018-04-20T23:07:05.166Z,80.60
2018-04-20T23:09:37.046Z,80.90
2018-04-20T23:12:08.931Z,81.10
2018-04-20T23:14:40.801Z,81.40
2018-04-20T23:17:12.690Z,81.10
2018-04-20T23:19:45.336Z,81.00
2018-04-20T23:22:17.222Z,80.90
2018-04-20T23:24:49.869Z,81.10
2018-04-20T23:27:21.766Z,81.00
2018-04-20T23:29:54.405Z,81.20
2018-04-20T23:32:26.294Z,81.10
2018-04-20T23:34:58.938Z,81.30
2018-04-20T23:37:30.829Z,81.20
2018-04-20T23:40:02.702Z,81.60
2018-04-20T23:42:35.378Z,81.40
2018-04-20T23:45:08.062Z,81.00
2018-04-20T23:47:40.722Z,81.20
2018-04-20T23:50:12.598Z,81.20
2018-04-20T23:52:45.254Z,81.30
2018-04-20T23:55:17.130Z,81.30
2018-04-20T23:57:49.784Z,80.30
